Time;durP1;ratioP1;P1;durP2;ratioP2;P2;SDS_P1;SDS_P2;PMS_P1;PMS_P2;Temp;Humidity;BMP_temperature;BMP_pressure;BME280_temperature;BME280_humidity;BME280_pressure;Samples;Min_cycle;Max_cycle;Signal;HPM_P1;HPM_P2
2023/01/14 00:02:01;;;;;;;20.73;4.03;;;8.80;99.90;;;;;;5015900;28;20207;-78
2023/01/14 00:04:27;;;;;;;17.97;5.03;;;8.90;99.90;;;;;;4990245;28;20186;-78
2023/01/14 00:06:52;;;;;;;12.17;3.73;;;8.80;99.90;;;;;;5009186;28;20184;-78
2023/01/14 00:09:18;;;;;;;17.73;4.40;;;8.90;99.90;;;;;;5007099;28;20186;-78
2023/01/14 00:11:46;;;;;;;8.93;2.87;;;8.70;99.90;;;;;;4980748;28;20572;-78
2023/01/14 00:14:24;;;;;;;15.83;3.87;;;8.80;99.90;;;;;;5019308;28;20280;-78
2023/01/14 00:16:54;;;;;;;15.00;5.70;;;8.70;99.90;;;;;;5010269;28;20447;-78
2023/01/14 00:19:20;;;;;;;18.13;4.33;;;8.80;99.90;;;;;;5014516;28;20417;-78
2023/01/14 00:21:47;;;;;;;13.30;4.50;;;8.90;99.90;;;;;;5011924;28;20452;-78
2023/01/14 00:24:14;;;;;;;11.50;3.47;;;8.80;99.90;;;;;;5001894;28;20939;-78
2023/01/14 00:26:41;;;;;;;15.23;3.80;;;8.70;99.90;;;;;;5010977;28;20504;-78
2023/01/14 00:29:13;;;;;;;18.17;3.13;;;8.50;99.90;;;;;;5004441;28;20458;-78
2023/01/14 00:31:39;;;;;;;9.50;3.60;;;8.70;99.90;;;;;;5013706;28;20490;-78
2023/01/14 00:34:04;;;;;;;12.40;6.13;;;8.80;99.90;;;;;;5004087;28;20882;-78
2023/01/14 00:36:30;;;;;;;14.10;3.97;;;8.70;99.90;;;;;;5013364;28;20651;-77
2023/01/14 00:38:56;;;;;;;11.53;3.00;;;8.70;99.90;;;;;;5010922;28;20175;-78
2023/01/14 00:41:26;;;;;;;12.20;3.73;;;8.70;99.90;;;;;;5011169;28;20186;-78
2023/01/14 00:43:53;;;;;;;13.80;3.57;;;8.60;99.90;;;;;;5017825;28;20599;-79
2023/01/14 00:46:22;;;;;;;17.03;4.30;;;8.60;99.90;;;;;;5002372;28;20414;-78
2023/01/14 00:48:48;;;;;;;19.17;3.80;;;8.80;99.90;;;;;;5017040;28;20441;-79
2023/01/14 00:51:14;;;;;;;14.57;3.93;;;8.80;99.90;;;;;;5020071;28;20418;-78
2023/01/14 00:53:41;;;;;;;17.93;4.10;;;8.60;99.90;;;;;;5015894;28;20256;-78
2023/01/14 00:56:08;;;;;;;12.90;3.53;;;8.80;99.90;;;;;;5022062;28;20444;-78
2023/01/14 00:58:33;;;;;;;17.83;3.33;;;8.50;99.90;;;;;;5029838;28;20450;-78
2023/01/14 01:00:59;;;;;;;17.77;3.77;;;8.60;99.90;;;;;;5029840;28;20430;-78
2023/01/14 01:03:26;;;;;;;12.20;4.30;;;8.60;99.90;;;;;;5027309;28;20268;-78
2023/01/14 01:05:52;;;;;;;15.10;4.30;;;8.60;99.90;;;;;;5013187;28;20187;-78
2023/01/14 01:08:20;;;;;;;14.70;3.93;;;8.60;99.90;;;;;;5007635;28;20427;-78
2023/01/14 01:10:47;;;;;;;21.23;5.40;;;8.70;99.90;;;;;;5012489;28;20469;-78
2023/01/14 01:13:13;;;;;;;9.13;3.20;;;8.70;99.90;;;;;;5001105;28;20462;-78
2023/01/14 01:15:40;;;;;;;10.27;3.57;;;8.50;99.90;;;;;;5013244;28;20776;-78
2023/01/14 01:18:08;;;;;;;14.37;3.40;;;8.60;99.90;;;;;;4986427;28;20410;-78
2023/01/14 01:20:34;;;;;;;11.63;4.00;;;8.70;99.90;;;;;;5013303;28;20422;-78
2023/01/14 01:23:01;;;;;;;16.10;3.73;;;8.70;99.90;;;;;;5024110;28;20437;-78
2023/01/14 01:25:27;;;;;;;11.07;3.30;;;8.70;99.90;;;;;;5025993;28;20466;-78
2023/01/14 01:27:57;;;;;;;21.50;4.07;;;8.50;99.90;;;;;;5013638;28;20934;-78
2023/01/14 01:30:24;;;;;;;19.50;5.50;;;8.70;99.90;;;;;;5013211;28;20418;-78
2023/01/14 01:32:50;;;;;;;13.67;3.53;;;8.60;99.90;;;;;;4981717;28;20469;-78
2023/01/14 01:35:16;;;;;;;10.40;3.00;;;8.80;99.90;;;;;;5016806;28;20474;-78
2023/01/14 01:37:42;;;;;;;11.97;3.63;;;8.60;99.90;;;;;;5010414;28;21014;-78
2023/01/14 01:40:10;;;;;;;17.80;3.83;;;8.50;99.90;;;;;;5022583;28;20230;-78
2023/01/14 01:42:36;;;;;;;12.10;3.63;;;8.60;99.90;;;;;;5001832;28;20207;-78
2023/01/14 01:45:20;;;;;;;23.17;6.73;;;8.60;99.90;;;;;;5004151;28;20425;-78
2023/01/14 01:47:51;;;;;;;13.63;3.80;;;8.60;99.90;;;;;;5005325;28;20182;-78
2023/01/14 01:50:17;;;;;;;15.30;4.00;;;8.60;99.90;;;;;;4991240;28;20430;-78
2023/01/14 01:52:44;;;;;;;16.67;4.37;;;8.50;99.90;;;;;;4995599;28;20465;-78
2023/01/14 01:55:12;;;;;;;12.50;3.50;;;8.50;99.90;;;;;;5006264;28;20179;-78
2023/01/14 01:57:38;;;;;;;13.73;4.27;;;8.50;99.90;;;;;;5022252;28;20508;-77
2023/01/14 02:00:07;;;;;;;14.90;3.40;;;8.60;99.90;;;;;;4989884;28;20397;-78
2023/01/14 02:02:33;;;;;;;18.03;4.23;;;8.50;99.90;;;;;;5018539;28;20541;-78
2023/01/14 02:04:59;;;;;;;15.50;4.27;;;8.60;99.90;;;;;;5006632;28;20417;-78
2023/01/14 02:07:26;;;;;;;22.17;4.37;;;8.70;99.90;;;;;;4996161;28;20430;-78
2023/01/14 02:09:59;;;;;;;18.50;4.43;;;8.50;99.90;;;;;;4996549;28;20421;-78
2023/01/14 02:12:24;;;;;;;16.83;3.60;;;8.40;99.90;;;;;;4994617;28;20509;-78
2023/01/14 02:15:31;;;;;;;13.33;3.50;;;8.50;99.90;;;;;;5012392;28;20422;-78
2023/01/14 02:18:02;;;;;;;11.20;3.47;;;8.70;99.90;;;;;;4979425;28;20290;-78
2023/01/14 02:20:45;;;;;;;18.73;4.97;;;8.50;99.90;;;;;;5013316;28;20438;-78
2023/01/14 02:23:29;;;;;;;16.20;3.37;;;8.50;99.90;;;;;;4996526;28;20445;-78
2023/01/14 02:26:14;;;;;;;12.30;3.67;;;8.60;99.90;;;;;;4996307;28;20424;-78
2023/01/14 02:29:07;;;;;;;17.57;4.07;;;8.40;99.90;;;;;;4996108;28;20504;-78
2023/01/14 02:31:52;;;;;;;17.07;4.13;;;8.50;99.90;;;;;;5013417;28;20445;-78
2023/01/14 02:34:36;;;;;;;15.73;3.77;;;8.60;99.90;;;;;;5013886;28;20453;-78
2023/01/14 02:37:16;;;;;;;16.50;3.83;;;8.50;99.90;;;;;;5013661;28;20406;-78
2023/01/14 02:40:07;;;;;;;13.53;4.57;;;8.50;99.90;;;;;;4996947;28;20535;-78
2023/01/14 02:45:36;;;;;;;16.50;3.73;;;8.60;99.90;;;;;;5013398;28;20434;-78
2023/01/14 02:48:04;;;;;;;17.23;4.27;;;8.50;99.90;;;;;;5027585;28;20484;-78
2023/01/14 02:50:31;;;;;;;13.00;3.33;;;8.50;99.90;;;;;;5033511;28;20504;-78
2023/01/14 02:52:57;;;;;;;11.13;3.20;;;8.20;99.90;;;;;;5016025;28;20468;-78
2023/01/14 02:55:32;;;;;;;19.93;4.60;;;8.30;99.90;;;;;;4999840;28;20413;-78
2023/01/14 02:58:46;;;;;;;13.43;3.63;;;8.50;99.90;;;;;;5033370;28;20166;-78
2023/01/14 03:01:18;;;;;;;21.27;4.20;;;8.40;99.90;;;;;;4945916;28;20677;-78
2023/01/14 03:04:22;;;;;;;13.67;4.50;;;8.40;99.90;;;;;;5033508;28;20405;-78
2023/01/14 03:07:01;;;;;;;15.17;4.70;;;8.30;99.90;;;;;;5032350;28;20455;-78
2023/01/14 03:09:48;;;;;;;13.00;3.93;;;8.40;99.90;;;;;;5032410;28;20774;-78
2023/01/14 03:12:32;;;;;;;17.00;3.83;;;8.30;99.90;;;;;;4995510;28;20453;-78
2023/01/14 03:15:16;;;;;;;17.90;3.30;;;8.30;99.90;;;;;;5020366;28;20413;-78
2023/01/14 03:17:49;;;;;;;9.00;3.10;;;8.60;99.90;;;;;;4992949;28;20410;-78
2023/01/14 03:20:25;;;;;;;15.93;3.53;;;8.30;99.90;;;;;;4993249;28;20415;-78
2023/01/14 03:22:52;;;;;;;14.60;4.57;;;8.30;99.90;;;;;;4992978;28;20426;-78
2023/01/14 03:25:22;;;;;;;9.43;3.27;;;8.30;99.90;;;;;;4975386;28;20477;-78
2023/01/14 03:27:50;;;;;;;15.10;3.40;;;8.40;99.90;;;;;;4975761;28;20772;-78
2023/01/14 03:30:24;;;;;;;17.40;3.23;;;8.40;99.90;;;;;;4976023;28;20419;-78
2023/01/14 03:32:58;;;;;;;19.60;4.97;;;8.30;99.90;;;;;;4975980;28;20531;-78
2023/01/14 03:35:36;;;;;;;11.83;4.00;;;8.30;99.90;;;;;;4992173;28;20411;-78
2023/01/14 03:38:08;;;;;;;14.43;3.70;;;8.30;99.90;;;;;;4991498;28;20627;-78
2023/01/14 03:40:37;;;;;;;13.10;4.10;;;8.20;99.90;;;;;;4992207;28;20423;-78
2023/01/14 03:43:32;;;;;;;11.37;3.53;;;8.40;99.90;;;;;;4989966;28;20464;-78
2023/01/14 03:45:58;;;;;;;14.60;3.93;;;8.40;99.90;;;;;;5006809;28;20421;-78
2023/01/14 03:48:25;;;;;;;14.50;4.50;;;8.50;99.90;;;;;;5032933;28;20439;-78
2023/01/14 03:51:02;;;;;;;15.60;3.67;;;8.30;99.90;;;;;;5033072;28;20436;-78
2023/01/14 03:53:40;;;;;;;16.27;5.07;;;8.50;99.90;;;;;;5033021;28;20523;-78
2023/01/14 03:56:35;;;;;;;24.93;6.00;;;8.30;99.90;;;;;;5032583;28;20401;-78
2023/01/14 03:59:14;;;;;;;14.40;3.90;;;8.30;99.90;;;;;;4944653;28;20445;-78
2023/01/14 04:01:45;;;;;;;13.30;3.40;;;8.30;99.90;;;;;;5032957;28;20421;-78
2023/01/14 04:04:12;;;;;;;13.43;3.30;;;8.40;99.90;;;;;;5033223;28;20511;-78
2023/01/14 04:06:38;;;;;;;16.00;4.30;;;8.60;99.90;;;;;;5033398;28;20766;-78
2023/01/14 04:09:06;;;;;;;13.20;3.50;;;8.40;99.90;;;;;;5014924;28;20428;-79
2023/01/14 04:11:31;;;;;;;12.63;3.20;;;8.40;99.90;;;;;;5014816;28;20413;-78
2023/01/14 04:16:41;;;;;;;11.00;3.70;;;8.50;99.90;;;;;;5028598;28;20167;-78
2023/01/14 04:19:07;;;;;;;10.53;3.10;;;8.40;99.90;;;;;;4999345;28;20445;-78
2023/01/14 04:21:32;;;;;;;15.43;3.97;;;8.20;99.90;;;;;;5022737;28;20179;-78
2023/01/14 04:23:58;;;;;;;16.23;3.60;;;8.30;99.90;;;;;;5010978;28;20182;-77
2023/01/14 04:26:23;;;;;;;15.87;3.03;;;8.20;99.90;;;;;;5014860;28;20178;-77
2023/01/14 04:28:49;;;;;;;8.47;3.47;;;8.10;99.90;;;;;;5032994;28;20690;-78
2023/01/14 04:31:15;;;;;;;15.00;3.93;;;8.30;99.90;;;;;;5021389;28;20586;-77
2023/01/14 04:33:40;;;;;;;16.10;4.60;;;8.50;99.90;;;;;;5026829;28;20574;-78
2023/01/14 04:36:07;;;;;;;16.03;3.83;;;8.30;99.90;;;;;;5015864;28;20178;-77
2023/01/14 04:38:32;;;;;;;12.40;4.37;;;8.10;99.90;;;;;;5032892;28;20171;-78
2023/01/14 04:40:58;;;;;;;13.13;2.90;;;8.10;99.90;;;;;;5032811;28;20500;-78
2023/01/14 04:43:24;;;;;;;18.60;3.70;;;8.10;99.90;;;;;;5033516;28;20232;-78
2023/01/14 04:45:51;;;;;;;15.40;4.30;;;8.20;99.90;;;;;;5033560;28;20209;-78
2023/01/14 04:48:18;;;;;;;12.83;3.83;;;8.10;99.90;;;;;;5032951;28;20828;-77
2023/01/14 04:50:50;;;;;;;13.90;3.60;;;8.10;99.90;;;;;;5032736;28;20417;-77
2023/01/14 04:53:23;;;;;;;12.10;3.17;;;8.30;99.90;;;;;;5033252;28;20460;-78
2023/01/14 04:55:52;;;;;;;11.87;4.30;;;8.20;99.90;;;;;;5032840;28;20424;-78
2023/01/14 04:58:18;;;;;;;17.57;3.50;;;8.10;99.90;;;;;;5021963;28;20425;-78
2023/01/14 05:00:45;;;;;;;20.07;3.23;;;8.10;99.90;;;;;;5029680;28;20416;-78
2023/01/14 05:03:13;;;;;;;13.37;3.23;;;8.10;99.90;;;;;;5030572;28;20432;-78
2023/01/14 05:05:40;;;;;;;11.83;3.17;;;8.20;99.90;;;;;;5017323;28;20480;-78
2023/01/14 05:08:09;;;;;;;14.00;3.03;;;8.10;99.90;;;;;;5022982;28;20418;-78
2023/01/14 05:10:35;;;;;;;10.13;2.60;;;8.30;99.90;;;;;;4993303;28;20500;-78
2023/01/14 05:13:02;;;;;;;11.27;2.83;;;8.20;99.90;;;;;;5013523;28;20978;-78
2023/01/14 05:15:33;;;;;;;18.30;3.13;;;8.20;99.90;;;;;;4979486;28;20918;-78
2023/01/14 05:17:59;;;;;;;16.40;3.60;;;8.10;99.90;;;;;;5012618;28;20418;-78
2023/01/14 05:20:26;;;;;;;8.60;3.00;;;8.10;99.90;;;;;;4994874;28;20426;-78
2023/01/14 05:22:56;;;;;;;13.20;3.47;;;8.00;99.90;;;;;;5012423;28;20500;-77
2023/01/14 05:25:22;;;;;;;11.43;3.30;;;8.30;99.90;;;;;;4994704;28;20426;-78
2023/01/14 05:27:48;;;;;;;18.33;3.87;;;8.20;99.90;;;;;;4994797;28;20433;-77
2023/01/14 05:30:14;;;;;;;11.73;3.00;;;8.20;99.90;;;;;;5016446;28;20579;-78
2023/01/14 05:32:39;;;;;;;15.63;2.90;;;8.20;99.90;;;;;;5003581;28;20242;-78
2023/01/14 05:35:06;;;;;;;13.00;4.03;;;8.10;99.90;;;;;;5005910;28;20175;-78
2023/01/14 05:37:33;;;;;;;8.90;3.37;;;8.10;99.90;;;;;;5017466;28;20242;-78
2023/01/14 05:39:59;;;;;;;6.40;2.57;;;8.10;99.90;;;;;;5013736;28;20418;-78
2023/01/14 05:47:57;;;;;;;12.43;3.10;;;8.10;99.90;;;;;;5014660;28;20433;-78
2023/01/14 05:50:23;;;;;;;14.60;3.10;;;8.10;99.90;;;;;;5002850;28;20452;-78
2023/01/14 05:52:48;;;;;;;10.53;2.60;;;8.20;99.90;;;;;;5026089;28;20225;-78
2023/01/14 05:55:14;;;;;;;13.97;4.17;;;8.10;99.90;;;;;;5015693;28;20253;-78
2023/01/14 05:57:40;;;;;;;14.57;3.27;;;8.00;99.90;;;;;;5015388;28;20247;-77
2023/01/14 06:00:06;;;;;;;11.90;3.10;;;8.10;99.90;;;;;;5033328;28;20233;-78
2023/01/14 06:08:03;;;;;;;11.10;2.50;;;8.10;99.90;;;;;;5033674;28;20417;-78
2023/01/14 06:10:29;;;;;;;7.70;2.63;;;8.00;99.90;;;;;;5024931;28;20468;-78
2023/01/14 06:12:57;;;;;;;11.07;3.10;;;8.10;99.90;;;;;;5025174;28;20457;-78
2023/01/14 06:15:33;;;;;;;13.33;2.90;;;8.10;99.90;;;;;;5033753;28;20232;-78
2023/01/14 06:18:09;;;;;;;8.73;2.60;;;8.10;99.90;;;;;;5033266;28;20448;-78
2023/01/14 06:20:39;;;;;;;16.57;3.53;;;8.00;99.90;;;;;;5033957;28;21012;-78
2023/01/14 06:23:05;;;;;;;11.23;3.13;;;8.20;99.90;;;;;;5033884;28;20437;-78
2023/01/14 06:25:32;;;;;;;8.30;2.57;;;8.00;99.90;;;;;;5016078;28;20425;-78
2023/01/14 06:28:00;;;;;;;7.00;2.53;;;8.10;99.90;;;;;;4999480;28;20567;-78
2023/01/14 06:30:29;;;;;;;9.50;2.40;;;8.10;99.90;;;;;;5034444;28;20957;-78
2023/01/14 06:32:55;;;;;;;11.97;2.90;;;8.20;99.90;;;;;;5033614;28;20838;-78
2023/01/14 06:35:22;;;;;;;8.83;2.27;;;8.00;99.90;;;;;;5033392;28;20417;-78
2023/01/14 06:37:47;;;;;;;7.00;2.47;;;8.20;99.90;;;;;;5033608;28;20778;-78
2023/01/14 06:40:14;;;;;;;11.67;2.77;;;8.10;99.90;;;;;;5033375;28;20405;-78
2023/01/14 06:42:43;;;;;;;6.67;2.10;;;8.00;99.90;;;;;;5016178;28;20260;-78
2023/01/14 06:45:10;;;;;;;7.27;2.00;;;8.10;99.90;;;;;;5033793;28;20418;-78
2023/01/14 06:47:36;;;;;;;9.80;2.60;;;7.90;99.90;;;;;;5016114;28;20881;-78
2023/01/14 06:50:03;;;;;;;8.67;2.50;;;8.00;99.90;;;;;;5033802;28;20509;-78
2023/01/14 06:52:29;;;;;;;10.87;2.10;;;8.20;99.90;;;;;;5016492;28;20934;-77
2023/01/14 06:54:55;;;;;;;7.67;2.40;;;7.90;99.90;;;;;;4999943;28;20419;-78
2023/01/14 06:57:22;;;;;;;6.20;2.40;;;8.10;99.90;;;;;;5033944;28;20171;-78
2023/01/14 06:59:48;;;;;;;11.10;2.43;;;8.00;99.90;;;;;;5016100;28;20420;-78
2023/01/14 07:02:13;;;;;;;7.77;2.47;;;8.10;99.90;;;;;;5033918;28;20429;-77
2023/01/14 07:04:39;;;;;;;9.13;2.80;;;8.30;99.90;;;;;;5033874;28;20262;-77
2023/01/14 07:07:05;;;;;;;9.43;2.47;;;8.20;99.90;;;;;;5016120;28;20178;-78
2023/01/14 07:09:31;;;;;;;10.57;2.57;;;8.00;99.90;;;;;;5033764;28;20171;-78
2023/01/14 07:11:57;;;;;;;6.77;2.20;;;8.00;99.90;;;;;;5016851;28;20592;-78
2023/01/14 07:14:22;;;;;;;13.70;2.33;;;7.90;99.90;;;;;;4996727;28;20534;-78
2023/01/14 07:16:48;;;;;;;10.70;2.00;;;7.90;99.90;;;;;;4996712;28;20242;-78
2023/01/14 07:19:13;;;;;;;8.97;3.43;;;7.90;99.90;;;;;;5014198;28;20187;-78
2023/01/14 07:21:39;;;;;;;10.57;3.20;;;8.00;99.90;;;;;;5012766;28;20242;-78
2023/01/14 07:24:06;;;;;;;6.03;2.00;;;7.90;99.90;;;;;;5017047;28;20540;-78
2023/01/14 07:26:31;;;;;;;10.63;2.20;;;8.20;99.90;;;;;;5004560;28;20266;-78
2023/01/14 07:28:57;;;;;;;6.77;2.40;;;8.20;99.90;;;;;;4996933;28;21009;-78
2023/01/14 07:31:23;;;;;;;5.83;2.37;;;8.00;99.90;;;;;;5014241;28;20194;-78
2023/01/14 07:33:48;;;;;;;4.50;2.00;;;8.20;99.90;;;;;;5007003;28;20298;-77
2023/01/14 07:36:14;;;;;;;7.63;2.63;;;8.00;99.90;;;;;;4984799;28;20172;-78
2023/01/14 07:38:40;;;;;;;5.90;2.30;;;8.00;99.90;;;;;;4997397;28;20172;-78
2023/01/14 07:41:09;;;;;;;9.43;2.70;;;8.00;99.90;;;;;;4998510;28;20176;-78
2023/01/14 07:43:35;;;;;;;6.50;2.20;;;8.20;99.90;;;;;;5009306;28;20469;-77
2023/01/14 07:46:01;;;;;;;11.10;2.60;;;8.20;99.90;;;;;;5001691;28;20410;-78
2023/01/14 07:48:28;;;;;;;6.80;2.33;;;8.00;99.90;;;;;;5008775;28;20238;-78
2023/01/14 07:50:53;;;;;;;11.70;2.60;;;8.30;99.90;;;;;;4987602;28;20193;-78
2023/01/14 07:53:19;;;;;;;9.50;2.40;;;8.00;99.90;;;;;;4980582;28;20560;-78
2023/01/14 07:55:44;;;;;;;9.10;2.37;;;8.00;99.90;;;;;;5025041;28;20166;-78
2023/01/14 07:58:10;;;;;;;7.40;2.30;;;7.80;99.90;;;;;;4997836;28;20210;-78
2023/01/14 08:00:36;;;;;;;7.10;2.03;;;8.00;99.90;;;;;;4996351;28;20175;-78
2023/01/14 08:03:02;;;;;;;9.20;3.00;;;7.80;99.90;;;;;;5014043;28;20234;-78
2023/01/14 08:05:28;;;;;;;7.30;2.47;;;7.90;99.90;;;;;;5013557;28;20911;-78
2023/01/14 08:07:53;;;;;;;7.47;3.13;;;7.80;99.90;;;;;;5014497;28;20437;-77
2023/01/14 08:10:20;;;;;;;5.90;2.07;;;7.80;99.90;;;;;;5007069;28;20175;-77
2023/01/14 08:12:45;;;;;;;9.77;2.40;;;7.80;99.90;;;;;;5013291;28;20210;-77
2023/01/14 08:15:12;;;;;;;6.00;2.37;;;7.70;99.90;;;;;;5031482;28;20421;-77
2023/01/14 08:17:38;;;;;;;6.70;2.47;;;7.80;99.90;;;;;;5032311;28;20560;-77
2023/01/14 08:20:05;;;;;;;6.00;2.60;;;7.60;99.90;;;;;;5015057;28;20500;-78
2023/01/14 08:22:30;;;;;;;9.50;2.27;;;8.00;99.90;;;;;;5033300;28;20539;-78
2023/01/14 08:24:57;;;;;;;6.63;2.13;;;8.00;99.90;;;;;;5033737;28;20452;-78
2023/01/14 08:27:22;;;;;;;8.07;1.97;;;7.70;99.90;;;;;;5015682;28;20195;-78
2023/01/14 08:29:48;;;;;;;7.83;3.57;;;7.80;99.90;;;;;;5033870;28;20458;-78
2023/01/14 08:32:14;;;;;;;5.10;2.10;;;7.80;99.90;;;;;;5002821;28;20231;-78
2023/01/14 08:34:40;;;;;;;7.20;1.80;;;7.80;99.90;;;;;;5025101;28;20182;-78
2023/01/14 08:37:05;;;;;;;8.70;2.83;;;7.70;99.90;;;;;;5001223;28;20907;-78
2023/01/14 08:39:31;;;;;;;10.00;2.90;;;7.70;99.90;;;;;;5013789;28;20182;-78
2023/01/14 08:41:58;;;;;;;6.60;2.03;;;7.70;99.90;;;;;;5004835;28;20207;-77
2023/01/14 08:44:23;;;;;;;8.20;2.80;;;7.80;99.90;;;;;;4991595;28;20188;-77
2023/01/14 08:46:49;;;;;;;8.13;2.33;;;7.60;99.90;;;;;;4990470;28;20982;-77
2023/01/14 08:49:15;;;;;;;9.37;2.23;;;7.50;99.90;;;;;;4994446;28;20203;-77
2023/01/14 08:51:40;;;;;;;12.70;3.50;;;7.80;99.90;;;;;;4994312;28;20207;-77
2023/01/14 08:54:06;;;;;;;3.10;2.40;;;7.70;99.90;;;;;;4976574;28;20207;-78
2023/01/14 08:56:33;;;;;;;10.90;2.90;;;7.70;99.90;;;;;;4993708;28;20184;-78
2023/01/14 08:58:58;;;;;;;6.87;2.30;;;7.60;99.90;;;;;;4992506;28;20187;-77
2023/01/14 09:01:24;;;;;;;9.33;3.50;;;7.50;99.90;;;;;;4976053;28;20442;-78
2023/01/14 09:03:52;;;;;;;8.00;3.00;;;7.80;99.90;;;;;;4995200;28;20176;-78
2023/01/14 09:06:18;;;;;;;7.30;2.40;;;7.60;99.90;;;;;;4997482;28;20207;-78
2023/01/14 09:17:07;;;;;;;8.30;2.50;;;7.80;99.90;;;;;;5022339;28;20833;-77
2023/01/14 09:19:41;;;;;;;9.57;2.40;;;7.60;99.90;;;;;;5016153;28;20457;-77
2023/01/14 09:22:09;;;;;;;14.40;2.30;;;7.80;99.90;;;;;;4999424;28;20443;-78
2023/01/14 09:24:35;;;;;;;8.10;2.10;;;7.70;99.90;;;;;;5016747;28;20509;-77
2023/01/14 09:27:00;;;;;;;6.00;2.13;;;7.90;99.90;;;;;;5016517;28;20850;-78
2023/01/14 09:29:26;;;;;;;9.33;2.73;;;7.60;99.90;;;;;;4981688;28;20179;-79
2023/01/14 09:31:52;;;;;;;6.90;2.30;;;7.60;99.90;;;;;;5018054;28;20313;-79
2023/01/14 09:34:18;;;;;;;8.33;2.73;;;7.80;99.90;;;;;;5022740;28;20251;-79
2023/01/14 09:36:43;;;;;;;9.30;2.10;;;7.80;99.90;;;;;;5019804;28;20179;-80
2023/01/14 09:39:09;;;;;;;6.33;2.00;;;7.60;99.90;;;;;;5032906;28;20420;-80
2023/01/14 09:41:39;;;;;;;3.97;2.20;;;7.70;99.90;;;;;;5032619;28;20203;-78
2023/01/14 09:44:08;;;;;;;8.13;2.47;;;7.80;99.90;;;;;;5032627;28;20197;-78
2023/01/14 09:46:35;;;;;;;4.40;2.33;;;7.60;99.90;;;;;;5032436;28;20420;-80
2023/01/14 09:49:03;;;;;;;9.00;2.83;;;7.80;99.90;;;;;;5014796;28;20424;-79
2023/01/14 09:51:41;;;;;;;6.27;2.50;;;8.00;99.90;;;;;;5032572;28;20417;-79
2023/01/14 09:54:36;;;;;;;7.13;2.20;;;7.80;99.90;;;;;;5021539;28;20471;-79
2023/01/14 09:57:28;;;;;;;4.17;1.70;;;8.00;99.90;;;;;;5025994;28;20457;-79
2023/01/14 10:00:01;;;;;;;5.77;2.23;;;7.90;99.90;;;;;;4993075;28;20423;-79
2023/01/14 10:02:38;;;;;;;4.93;1.87;;;7.90;99.90;;;;;;4959443;28;20439;-79
2023/01/14 10:05:19;;;;;;;10.27;1.73;;;8.00;99.90;;;;;;5003278;28;20468;-79
2023/01/14 10:07:45;;;;;;;4.47;1.93;;;8.00;99.90;;;;;;5035395;28;20416;-79
2023/01/14 10:10:35;;;;;;;8.10;2.20;;;8.10;99.90;;;;;;5038246;28;20450;-79
2023/01/14 10:13:05;;;;;;;3.73;1.63;;;8.10;99.90;;;;;;5011511;28;20461;-79
2023/01/14 10:15:51;;;;;;;5.80;1.53;;;8.10;99.90;;;;;;5019414;28;20458;-79
2023/01/14 10:18:44;;;;;;;3.83;1.80;;;8.10;99.90;;;;;;4960945;28;20962;-79
2023/01/14 10:21:26;;;;;;;4.83;1.70;;;8.10;99.90;;;;;;5024116;28;20426;-79
2023/01/14 10:23:52;;;;;;;5.93;1.90;;;8.10;99.90;;;;;;5032182;28;20425;-78
2023/01/14 10:26:20;;;;;;;5.77;1.60;;;8.30;99.90;;;;;;5014627;28;20929;-79
2023/01/14 10:28:52;;;;;;;4.07;1.40;;;8.10;99.90;;;;;;5031830;28;20898;-78
2023/01/14 10:31:28;;;;;;;6.80;1.67;;;8.20;99.90;;;;;;5013793;28;20435;-79
2023/01/14 10:33:55;;;;;;;7.03;1.83;;;8.10;99.90;;;;;;5031613;28;20463;-79
2023/01/14 10:36:23;;;;;;;4.60;1.70;;;8.20;99.90;;;;;;5026675;28;20430;-77
2023/01/14 10:38:51;;;;;;;2.70;1.40;;;8.40;99.90;;;;;;5003552;28;20422;-77
2023/01/14 10:41:48;;;;;;;5.67;1.70;;;8.30;99.90;;;;;;5002923;28;20422;-77
2023/01/14 10:44:04;;;;;;;5.33;2.23;;;8.30;99.90;;;;;;5026603;28;20425;-78
2023/01/14 10:46:29;;;;;;;6.90;1.80;;;8.20;99.90;;;;;;5022325;28;20507;-77
2023/01/14 10:49:11;;;;;;;2.80;1.47;;;8.10;99.90;;;;;;5006232;28;20520;-78
2023/01/14 10:51:47;;;;;;;2.90;1.73;;;8.20;99.90;;;;;;5032109;28;20202;-77
2023/01/14 10:54:24;;;;;;;3.53;1.53;;;8.20;99.90;;;;;;5032730;28;20464;-77
2023/01/14 10:56:56;;;;;;;2.60;1.30;;;8.30;99.90;;;;;;5032509;28;20412;-78
2023/01/14 10:59:32;;;;;;;2.90;1.40;;;8.30;99.90;;;;;;5032099;28;20425;-77
2023/01/14 11:01:58;;;;;;;1.50;1.20;;;8.10;99.90;;;;;;5015502;28;20444;-78
2023/01/14 11:04:29;;;;;;;6.10;1.60;;;8.20;99.90;;;;;;5032535;28;20425;-77
2023/01/14 11:06:55;;;;;;;3.13;1.70;;;8.20;99.90;;;;;;5015000;28;20771;-76
2023/01/14 11:09:27;;;;;;;4.77;1.63;;;8.20;99.90;;;;;;5015137;28;20453;-76
2023/01/14 11:11:54;;;;;;;4.33;2.00;;;8.30;99.90;;;;;;5016938;28;20457;-78
2023/01/14 11:14:31;;;;;;;3.93;1.23;;;8.40;99.90;;;;;;4996040;28;20462;-78
2023/01/14 11:16:57;;;;;;;3.20;1.20;;;8.40;99.90;;;;;;4995290;28;20421;-77
2023/01/14 11:19:24;;;;;;;5.03;1.60;;;8.30;99.90;;;;;;4995909;28;20509;-77
2023/01/14 11:21:59;;;;;;;4.53;1.10;;;8.30;99.90;;;;;;4995780;28;20442;-78
2023/01/14 11:24:30;;;;;;;2.67;1.17;;;8.50;99.90;;;;;;5012859;28;20424;-77
2023/01/14 11:27:05;;;;;;;5.13;1.30;;;8.40;99.90;;;;;;5012435;28;20414;-78
2023/01/14 11:29:36;;;;;;;4.50;1.53;;;8.40;99.90;;;;;;4995784;28;20480;-78
2023/01/14 11:32:14;;;;;;;3.30;1.50;;;8.30;99.90;;;;;;4978871;28;20871;-76
2023/01/14 11:35:01;;;;;;;5.93;0.90;;;8.50;99.90;;;;;;5018230;28;20527;-77
2023/01/14 11:37:31;;;;;;;3.77;1.20;;;8.20;99.90;;;;;;4992790;28;20415;-78
2023/01/14 11:39:59;;;;;;;3.10;1.47;;;8.60;99.90;;;;;;4975923;28;20426;-78
2023/01/14 11:42:42;;;;;;;4.83;1.63;;;8.40;99.90;;;;;;4993649;28;20445;-79
2023/01/14 11:45:10;;;;;;;3.10;1.10;;;8.60;99.90;;;;;;4975319;28;20421;-78
2023/01/14 11:47:45;;;;;;;1.77;1.07;;;8.50;99.90;;;;;;4994157;28;20430;-76
2023/01/14 11:50:21;;;;;;;5.30;1.10;;;8.50;99.90;;;;;;5021343;28;20429;-78
2023/01/14 11:52:57;;;;;;;2.10;1.10;;;8.50;99.90;;;;;;5021875;28;20465;-77
2023/01/14 11:55:25;;;;;;;4.03;1.50;;;8.60;99.90;;;;;;4978469;28;20945;-78
2023/01/14 11:57:51;;;;;;;2.33;1.30;;;8.60;99.90;;;;;;4995225;28;20511;-78
2023/01/14 12:00:17;;;;;;;2.60;1.30;;;8.60;99.90;;;;;;5012396;28;20454;-76
2023/01/14 12:02:52;;;;;;;2.80;1.00;;;8.80;99.90;;;;;;5012748;28;20203;-78
2023/01/14 12:05:21;;;;;;;2.53;1.17;;;8.80;99.90;;;;;;5012659;28;20843;-78
2023/01/14 13:04:48;;;;;;;2.60;1.20;;;8.70;99.90;;;;;;5015264;28;20416;-78
2023/01/14 13:07:36;;;;;;;3.10;0.97;;;8.90;99.90;;;;;;5011917;28;20434;-78
2023/01/14 13:10:05;;;;;;;4.33;1.40;;;9.00;99.90;;;;;;5010895;28;20440;-78
2023/01/14 13:12:32;;;;;;;2.93;0.83;;;8.90;99.90;;;;;;5009076;28;20821;-78
2023/01/14 13:15:19;;;;;;;1.10;0.80;;;9.20;99.90;;;;;;5023841;28;20417;-77
2023/01/14 13:17:52;;;;;;;3.10;1.67;;;9.00;99.90;;;;;;5000738;28;20421;-78
2023/01/14 13:20:35;;;;;;;1.00;0.70;;;8.90;99.90;;;;;;5032134;28;20906;-78
2023/01/14 13:23:10;;;;;;;2.10;1.60;;;9.10;99.90;;;;;;5032202;28;20483;-77
2023/01/14 13:25:35;;;;;;;1.13;1.03;;;9.00;99.90;;;;;;5032015;28;20404;-77
2023/01/14 13:28:10;;;;;;;0.93;0.60;;;9.00;99.90;;;;;;5025707;28;20422;-79
2023/01/14 13:30:44;;;;;;;1.23;0.90;;;9.10;99.90;;;;;;4997957;28;20175;-79
2023/01/14 13:33:18;;;;;;;1.47;0.93;;;8.90;99.90;;;;;;4988040;28;20473;-78
2023/01/14 13:36:09;;;;;;;1.60;0.90;;;9.00;99.90;;;;;;4997784;28;20489;-78
2023/01/14 13:39:02;;;;;;;1.10;0.70;;;8.90;99.90;;;;;;5021591;28;20471;-77
2023/01/14 13:41:40;;;;;;;1.27;0.70;;;9.00;99.90;;;;;;4995306;28;20436;-77
2023/01/14 13:44:20;;;;;;;1.63;0.60;;;8.90;99.90;;;;;;5018119;28;20425;-77
2023/01/14 13:46:53;;;;;;;2.00;1.00;;;9.00;99.90;;;;;;4991920;28;20576;-77
2023/01/14 13:49:28;;;;;;;0.60;0.43;;;9.00;99.90;;;;;;4989178;28;20433;-79
2023/01/14 13:52:02;;;;;;;0.97;0.70;;;9.10;99.90;;;;;;5012145;28;20437;-78
2023/01/14 13:54:32;;;;;;;1.57;0.90;;;9.20;99.90;;;;;;4988586;28;20487;-78
2023/01/14 13:57:15;;;;;;;1.97;0.93;;;9.20;99.90;;;;;;5001754;28;20410;-78
2023/01/14 13:59:43;;;;;;;2.70;1.30;;;9.10;99.90;;;;;;5000190;28;20415;-78
2023/01/14 14:02:37;;;;;;;1.33;0.60;;;9.30;99.90;;;;;;4998729;28;20455;-77
2023/01/14 14:05:12;;;;;;;2.43;0.90;;;9.30;99.90;;;;;;5004545;28;20465;-78
2023/01/14 14:07:44;;;;;;;1.80;0.97;;;9.10;99.90;;;;;;4982530;28;20454;-78
2023/01/14 14:10:17;;;;;;;1.00;0.80;;;9.20;99.90;;;;;;4998702;28;20419;-78
2023/01/14 14:15:58;;;;;;;0.70;0.50;;;9.20;99.90;;;;;;5013490;28;20419;-78
2023/01/14 14:18:30;;;;;;;0.80;0.63;;;9.30;99.90;;;;;;5012709;28;20435;-78
2023/01/14 14:20:57;;;;;;;1.20;0.80;;;9.20;99.90;;;;;;5011908;28;20453;-78
2023/01/14 14:23:33;;;;;;;1.17;0.90;;;9.20;99.90;;;;;;5000402;28;20449;-78
2023/01/14 14:26:04;;;;;;;0.93;0.67;;;9.20;99.90;;;;;;5013190;28;20413;-78
2023/01/14 14:28:31;;;;;;;1.70;0.93;;;9.40;99.90;;;;;;5011449;28;20483;-77
2023/01/14 14:31:01;;;;;;;0.90;0.80;;;9.20;99.90;;;;;;4996654;28;20427;-77
2023/01/14 14:33:40;;;;;;;1.23;0.70;;;9.30;99.90;;;;;;4976864;28;20462;-79
2023/01/14 14:36:21;;;;;;;1.33;0.70;;;9.30;99.90;;;;;;4993807;28;20415;-77